createdAt,value
2023-04-19T00:07:48.199Z,16.00
2023-04-19T00:15:53.666Z,15.90
2023-04-19T00:24:01.838Z,15.90
2023-04-19T00:32:08.168Z,16.20
2023-04-19T00:40:16.580Z,16.20
2023-04-19T00:48:22.084Z,16.20
2023-04-19T00:56:30.637Z,16.20
2023-04-19T01:04:36.349Z,16.30
2023-04-19T01:12:44.840Z,16.10
2023-04-19T01:20:50.273Z,15.90
2023-04-19T01:28:58.434Z,15.70
2023-04-19T01:37:03.946Z,15.80
2023-04-19T01:45:13.258Z,15.90
2023-04-19T01:53:18.700Z,16.00
2023-04-19T02:01:27.011Z,15.90
2023-04-19T02:09:32.537Z,16.00
2023-04-19T02:17:40.878Z,16.20
2023-04-19T02:25:46.595Z,16.10
2023-04-19T02:33:55.862Z,15.80
2023-04-19T02:42:01.483Z,15.70
2023-04-19T02:50:12.109Z,15.90
2023-04-19T02:58:23.915Z,16.00
2023-04-19T03:06:45.520Z,15.90
2023-04-19T03:14:52.391Z,15.90
2023-04-19T03:23:00.734Z,15.90
2023-04-19T03:31:07.483Z,15.90
2023-04-19T03:39:16.567Z,15.80
2023-04-19T03:47:25.539Z,16.00
2023-04-19T03:55:42.799Z,16.00
2023-04-19T04:03:48.611Z,16.00
2023-04-19T04:11:56.992Z,16.00
2023-04-19T04:20:03.628Z,16.10
2023-04-19T04:28:13.670Z,16.00
2023-04-19T04:36:20.779Z,15.90
2023-04-19T04:44:29.519Z,15.90
2023-04-19T04:52:35.010Z,16.00
2023-04-19T05:00:58.168Z,16.10
2023-04-19T05:09:05.592Z,16.10
2023-04-19T05:17:16.030Z,16.20
2023-04-19T05:25:22.149Z,16.20
2023-04-19T05:33:31.787Z,16.40
2023-04-19T05:41:37.546Z,16.50
2023-04-19T05:49:45.636Z,16.40
2023-04-19T05:57:58.732Z,16.40
2023-04-19T06:06:08.949Z,16.70
2023-04-19T06:14:15.157Z,16.90
2023-04-19T06:22:24.344Z,16.90
2023-04-19T06:30:29.910Z,17.20
2023-04-19T06:38:38.692Z,16.90
2023-04-19T06:46:44.253Z,17.10
2023-04-19T06:54:54.261Z,17.20
2023-04-19T07:03:00.786Z,16.80
2023-04-19T07:11:09.173Z,16.90
2023-04-19T07:19:14.669Z,17.30
2023-04-19T07:27:22.770Z,16.80
2023-04-19T07:35:28.440Z,17.00
2023-04-19T07:43:38.108Z,17.50
2023-04-19T07:51:44.583Z,17.70
2023-04-19T07:59:54.765Z,18.00
2023-04-19T08:08:00.251Z,18.40
2023-04-19T08:24:17.652Z,19.30
2023-04-19T08:32:25.927Z,19.60
2023-04-19T08:40:33.049Z,20.40
2023-04-19T08:48:41.735Z,20.80
2023-04-19T08:56:48.209Z,21.20
2023-04-19T09:04:56.679Z,21.60
2023-04-19T09:13:07.160Z,22.30
2023-04-19T09:21:31.023Z,22.90
2023-04-19T09:29:36.480Z,23.00
2023-04-19T09:45:53.034Z,23.30
2023-04-19T09:54:01.422Z,24.10
2023-04-19T10:02:09.275Z,25.00
2023-04-19T10:10:23.959Z,24.90
2023-04-19T10:18:33.810Z,24.80
2023-04-19T10:27:12.982Z,24.80
2023-04-19T10:35:23.197Z,25.10
2023-04-19T10:43:32.331Z,25.90
2023-04-19T10:51:39.509Z,26.30
2023-04-19T10:59:48.409Z,28.60
2023-04-19T11:07:58.102Z,28.60
2023-04-19T11:16:11.285Z,29.00
2023-04-19T11:24:19.211Z,36.00
2023-04-19T11:32:27.757Z,41.90
2023-04-19T11:40:33.634Z,44.30
2023-04-19T11:48:42.274Z,40.40
2023-04-19T11:57:03.902Z,33.10
2023-04-19T12:05:17.781Z,26.60
2023-04-19T12:13:23.464Z,23.60
2023-04-19T12:21:33.440Z,22.50
2023-04-19T12:29:39.585Z,22.00
2023-04-19T12:37:47.662Z,24.60
2023-04-19T12:45:53.160Z,35.20
2023-04-19T12:54:02.698Z,41.80
2023-04-19T13:02:27.806Z,45.60
2023-04-19T13:10:36.162Z,41.60
2023-04-19T13:18:41.637Z,34.60
2023-04-19T13:26:49.825Z,29.90
2023-04-19T13:34:55.894Z,27.20
2023-04-19T13:43:04.269Z,25.80
2023-04-19T13:51:10.489Z,24.40
2023-04-19T13:59:18.700Z,22.70
2023-04-19T14:07:24.217Z,22.00
2023-04-19T14:15:32.302Z,21.20
2023-04-19T14:23:37.897Z,21.70
2023-04-19T14:31:45.956Z,22.20
2023-04-19T14:39:51.686Z,22.80
2023-04-19T14:47:59.892Z,23.20
2023-04-19T14:56:07.723Z,23.40
2023-04-19T15:04:16.369Z,23.20
2023-04-19T15:12:22.016Z,22.70
2023-04-19T15:20:30.296Z,22.30
2023-04-19T15:28:38.822Z,21.10
2023-04-19T15:37:00.991Z,20.10
2023-04-19T15:45:06.838Z,19.20
2023-04-19T15:53:16.265Z,18.30
2023-04-19T16:01:23.238Z,17.70
2023-04-19T16:09:31.498Z,17.40
2023-04-19T16:17:37.090Z,17.80
2023-04-19T16:25:47.103Z,18.10
2023-04-19T16:33:52.659Z,18.10
2023-04-19T16:42:01.507Z,18.00
2023-04-19T16:50:09.415Z,17.70
2023-04-19T16:58:17.780Z,17.90
2023-04-19T17:06:23.316Z,18.00
2023-04-19T17:14:32.035Z,18.10
2023-04-19T17:22:37.547Z,17.70
2023-04-19T17:30:45.574Z,17.10
2023-04-19T17:38:51.027Z,17.70
2023-04-19T17:47:00.026Z,17.50
2023-04-19T17:55:06.762Z,17.60
2023-04-19T18:03:14.994Z,17.80
2023-04-19T18:11:21.538Z,17.80
2023-04-19T18:19:32.246Z,17.80
2023-04-19T18:27:37.736Z,17.90
2023-04-19T18:35:46.019Z,17.90
2023-04-19T18:44:25.780Z,18.00
2023-04-19T18:52:25.267Z,17.90
2023-04-19T19:00:30.845Z,17.90
2023-04-19T19:08:39.052Z,17.90
2023-04-19T19:16:51.865Z,17.90
2023-04-19T19:25:00.720Z,17.80
2023-04-19T19:33:06.440Z,17.40
2023-04-19T19:49:24.578Z,16.80
2023-04-19T20:05:43.803Z,16.90
2023-04-19T20:13:52.044Z,17.30
2023-04-19T20:21:59.359Z,17.20
2023-04-19T20:30:08.698Z,17.60
2023-04-19T20:38:14.139Z,17.50
2023-04-19T20:46:22.300Z,17.30
2023-04-19T20:54:27.973Z,17.40
2023-04-19T21:02:36.241Z,17.60
2023-04-19T21:10:41.933Z,17.50
2023-04-19T21:18:53.599Z,17.50
2023-04-19T21:26:59.078Z,17.40
2023-04-19T21:35:08.531Z,17.40
2023-04-19T21:43:14.048Z,17.20
2023-04-19T21:51:22.096Z,17.20
2023-04-19T21:59:27.693Z,17.30
2023-04-19T22:07:38.444Z,17.40
2023-04-19T22:15:43.891Z,17.20
2023-04-19T22:23:51.972Z,17.00
2023-04-19T22:31:57.510Z,17.10
2023-04-19T22:40:06.149Z,17.10
2023-04-19T22:48:12.706Z,17.00
2023-04-19T22:56:20.925Z,17.10
2023-04-19T23:04:27.217Z,17.10
2023-04-19T23:12:35.318Z,16.90
2023-04-19T23:20:41.732Z,16.80
2023-04-19T23:28:49.914Z,16.70
2023-04-19T23:36:55.330Z,16.60
2023-04-19T23:45:03.431Z,16.60
2023-04-19T23:53:08.969Z,16.60
